createdAt,value
2018-11-11T00:01:51.135Z,35.60
2018-11-11T00:04:18.599Z,37.97
2018-11-11T00:06:46.030Z,41.30
2018-11-11T00:09:13.445Z,38.43
2018-11-11T00:11:40.899Z,42.07
2018-11-11T00:14:08.337Z,42.20
2018-11-11T00:16:35.777Z,46.77
2018-11-11T00:19:03.216Z,38.50
2018-11-11T00:21:30.695Z,40.37
2018-11-11T00:23:58.072Z,37.43
2018-11-11T00:26:25.493Z,35.03
2018-11-11T00:28:52.873Z,38.40
2018-11-11T00:31:20.299Z,34.23
2018-11-11T00:33:47.697Z,37.90
2018-11-11T00:36:15.174Z,36.07
2018-11-11T00:38:42.607Z,37.33
2018-11-11T00:41:10.050Z,41.00
2018-11-11T00:43:37.511Z,41.53
2018-11-11T00:46:05.025Z,35.47
2018-11-11T00:48:32.461Z,35.10
2018-11-11T00:50:59.931Z,38.77
2018-11-11T00:53:27.360Z,37.53
2018-11-11T00:55:54.782Z,38.43
2018-11-11T00:58:22.225Z,36.07
2018-11-11T01:00:49.680Z,36.27
2018-11-11T01:03:17.115Z,37.10
2018-11-11T01:05:44.529Z,36.77
2018-11-11T01:08:11.919Z,36.03
2018-11-11T01:10:39.364Z,35.30
2018-11-11T01:13:06.832Z,30.90
2018-11-11T01:15:34.202Z,33.87
2018-11-11T01:18:01.640Z,37.63
2018-11-11T01:20:29.011Z,35.23
2018-11-11T01:22:56.478Z,38.13
2018-11-11T01:25:23.906Z,35.27
2018-11-11T01:27:51.296Z,34.40
2018-11-11T01:30:18.736Z,37.17
2018-11-11T01:32:46.197Z,32.73
2018-11-11T01:35:14.723Z,33.53
2018-11-11T01:37:42.645Z,32.90
2018-11-11T01:40:10.087Z,35.10
2018-11-11T01:42:37.574Z,35.83
2018-11-11T01:45:07.969Z,36.30
2018-11-11T01:47:35.347Z,35.77
2018-11-11T01:50:02.792Z,36.87
2018-11-11T01:52:30.227Z,43.50
2018-11-11T01:54:57.626Z,43.20
2018-11-11T01:57:25.029Z,34.53
2018-11-11T01:59:52.436Z,32.90
2018-11-11T02:02:19.834Z,36.70
2018-11-11T02:04:47.247Z,36.77
2018-11-11T02:07:14.775Z,34.47
2018-11-11T02:09:42.240Z,35.17
2018-11-11T02:12:09.682Z,35.33
2018-11-11T02:14:37.123Z,32.90
2018-11-11T02:17:04.550Z,28.43
2018-11-11T02:19:31.927Z,27.60
2018-11-11T02:21:59.349Z,27.57
2018-11-11T02:24:26.757Z,28.13
2018-11-11T02:26:54.173Z,27.47
2018-11-11T02:29:21.570Z,26.97
2018-11-11T02:31:48.970Z,32.10
2018-11-11T02:34:16.381Z,28.97
2018-11-11T02:36:43.767Z,31.37
2018-11-11T02:39:11.126Z,28.33
2018-11-11T02:41:38.553Z,28.40
2018-11-11T02:44:06.063Z,28.43
2018-11-11T02:46:33.493Z,31.47
2018-11-11T02:49:00.911Z,25.43
2018-11-11T02:51:28.336Z,26.43
2018-11-11T02:53:55.714Z,28.25
2018-11-11T02:56:23.111Z,25.43
2018-11-11T02:58:50.503Z,25.23
2018-11-11T03:01:17.906Z,25.00
2018-11-11T03:03:45.327Z,23.87
2018-11-11T03:06:12.741Z,27.93
2018-11-11T03:08:40.164Z,28.43
2018-11-11T03:11:07.625Z,24.97
2018-11-11T03:13:35.013Z,25.70
2018-11-11T03:16:02.715Z,25.30
2018-11-11T03:18:30.121Z,25.40
2018-11-11T03:20:57.534Z,23.23
2018-11-11T03:23:24.972Z,23.93
2018-11-11T03:25:52.370Z,26.57
2018-11-11T03:28:19.786Z,30.47
2018-11-11T03:30:47.154Z,24.93
2018-11-11T03:33:14.543Z,18.83
2018-11-11T03:35:41.948Z,16.90
2018-11-11T03:38:09.327Z,13.37
2018-11-11T03:40:36.716Z,12.33
2018-11-11T03:43:04.126Z,12.00
2018-11-11T03:45:31.587Z,11.00
2018-11-11T03:47:58.960Z,10.37
2018-11-11T03:50:26.380Z,9.60
2018-11-11T03:52:53.780Z,10.33
2018-11-11T03:55:21.215Z,10.80
2018-11-11T03:57:48.655Z,11.40
2018-11-11T04:00:16.684Z,12.10
2018-11-11T04:02:44.102Z,12.53
2018-11-11T04:05:12.566Z,14.83
2018-11-11T04:07:40.095Z,13.90
2018-11-11T04:10:09.889Z,14.10
2018-11-11T04:12:37.695Z,13.23
2018-11-11T04:15:06.223Z,14.73
2018-11-11T04:17:33.617Z,12.70
2018-11-11T04:20:01.002Z,12.90
2018-11-11T04:22:28.399Z,10.73
2018-11-11T04:24:55.810Z,11.73
2018-11-11T04:27:23.247Z,12.43
2018-11-11T04:29:50.676Z,11.03
2018-11-11T04:32:18.088Z,10.67
2018-11-11T04:34:45.511Z,11.80
2018-11-11T04:37:12.906Z,12.13
2018-11-11T04:39:40.971Z,11.23
2018-11-11T04:42:08.378Z,11.80
2018-11-11T04:44:35.782Z,10.70
2018-11-11T04:47:03.199Z,12.77
2018-11-11T04:49:30.719Z,12.57
2018-11-11T04:51:58.172Z,12.27
2018-11-11T04:54:25.561Z,12.00
2018-11-11T04:56:53.016Z,12.43
2018-11-11T04:59:20.394Z,12.93
2018-11-11T05:01:47.802Z,12.07
2018-11-11T05:04:15.273Z,14.23
2018-11-11T05:06:42.680Z,12.50
2018-11-11T05:09:11.588Z,17.07
2018-11-11T05:11:39.416Z,16.50
2018-11-11T05:14:06.916Z,12.67
2018-11-11T05:16:34.348Z,16.27
2018-11-11T05:19:01.749Z,17.40
2018-11-11T05:21:29.178Z,16.80
2018-11-11T05:23:56.607Z,20.43
2018-11-11T05:26:24.007Z,17.67
2018-11-11T05:28:51.448Z,17.43
2018-11-11T05:31:18.838Z,17.40
2018-11-11T05:33:46.271Z,15.57
2018-11-11T05:36:13.693Z,16.60
2018-11-11T05:38:41.109Z,16.10
2018-11-11T05:41:08.507Z,17.07
2018-11-11T05:43:35.898Z,17.07
2018-11-11T05:46:03.330Z,17.90
2018-11-11T05:48:30.763Z,21.23
2018-11-11T05:50:58.222Z,21.67
2018-11-11T05:53:25.700Z,20.73
2018-11-11T05:55:53.123Z,25.53
2018-11-11T05:58:20.548Z,25.60
2018-11-11T06:00:48.038Z,27.60
2018-11-11T06:03:15.411Z,31.70
2018-11-11T06:05:42.831Z,30.03
2018-11-11T06:08:10.237Z,34.93
2018-11-11T06:10:37.639Z,33.93
2018-11-11T06:13:05.061Z,33.57
2018-11-11T06:15:32.537Z,33.53
2018-11-11T06:17:59.901Z,36.00
2018-11-11T06:20:27.323Z,34.43
2018-11-11T06:22:54.776Z,32.37
2018-11-11T06:25:22.167Z,38.13
2018-11-11T06:27:49.643Z,37.20
2018-11-11T06:30:17.053Z,42.10
2018-11-11T06:32:44.489Z,38.90
2018-11-11T06:35:11.892Z,45.23
2018-11-11T06:37:39.802Z,41.20
2018-11-11T06:40:08.571Z,39.77
2018-11-11T06:42:36.077Z,41.83
2018-11-11T06:45:04.183Z,38.03
2018-11-11T06:47:31.595Z,41.67
2018-11-11T06:49:58.983Z,38.67
2018-11-11T06:52:26.457Z,38.20
2018-11-11T06:54:53.879Z,37.47
2018-11-11T06:57:21.327Z,35.90
2018-11-11T06:59:48.776Z,39.60
2018-11-11T07:02:16.179Z,35.33
2018-11-11T07:04:43.604Z,39.93
2018-11-11T07:07:11.017Z,39.17
2018-11-11T07:09:38.436Z,40.47
2018-11-11T07:12:05.842Z,39.70
2018-11-11T07:14:33.340Z,39.10
2018-11-11T07:17:00.767Z,37.97
2018-11-11T07:19:28.211Z,36.17
2018-11-11T07:21:55.646Z,37.47
2018-11-11T07:24:23.083Z,40.70
2018-11-11T07:26:50.490Z,55.57
2018-11-11T07:29:17.929Z,47.87
2018-11-11T07:31:45.394Z,36.57
2018-11-11T07:34:12.843Z,37.70
2018-11-11T07:36:40.232Z,36.43
2018-11-11T07:39:10.057Z,36.70
2018-11-11T07:41:37.482Z,36.00
2018-11-11T07:44:05.070Z,36.70
2018-11-11T07:46:32.502Z,35.07
2018-11-11T07:48:59.928Z,35.73
2018-11-11T07:51:27.394Z,35.60
2018-11-11T07:53:54.773Z,35.87
2018-11-11T07:56:22.186Z,34.13
2018-11-11T07:58:49.591Z,34.63
2018-11-11T08:01:17.024Z,34.83
2018-11-11T08:03:44.472Z,35.13
2018-11-11T08:06:11.892Z,27.13
2018-11-11T08:08:39.307Z,29.90
2018-11-11T08:11:18.255Z,29.10
2018-11-11T08:13:45.668Z,27.83
2018-11-11T08:16:13.096Z,30.33
2018-11-11T08:18:40.495Z,26.17
2018-11-11T08:21:07.924Z,24.60
2018-11-11T08:23:35.363Z,24.67
2018-11-11T08:26:02.803Z,23.97
2018-11-11T08:28:30.217Z,23.57
2018-11-11T08:30:57.642Z,23.63
2018-11-11T08:33:25.048Z,22.03
2018-11-11T08:35:52.439Z,19.40
2018-11-11T08:38:19.911Z,13.67
2018-11-11T08:40:47.277Z,20.53
2018-11-11T08:43:14.682Z,42.03
2018-11-11T08:45:42.112Z,34.53
2018-11-11T08:48:09.617Z,15.67
2018-11-11T08:50:37.022Z,15.23
2018-11-11T08:53:04.632Z,10.87
2018-11-11T08:55:32.041Z,8.80
2018-11-11T08:57:59.504Z,9.33
2018-11-11T09:00:26.899Z,11.07
2018-11-11T09:02:54.390Z,13.80
2018-11-11T09:05:21.817Z,11.50
2018-11-11T09:07:49.276Z,10.63
2018-11-11T09:10:16.740Z,9.67
2018-11-11T09:12:44.185Z,10.77
2018-11-11T09:15:12.691Z,10.80
2018-11-11T09:17:40.751Z,15.23
2018-11-11T09:20:08.892Z,12.17
2018-11-11T09:22:36.327Z,14.10
2018-11-11T09:25:04.489Z,12.77
2018-11-11T09:27:31.980Z,15.07
2018-11-11T09:29:59.414Z,10.53
2018-11-11T09:32:26.804Z,6.33
2018-11-11T09:34:54.307Z,6.73
2018-11-11T09:37:21.724Z,9.70
2018-11-11T09:39:49.147Z,6.80
2018-11-11T09:42:16.571Z,9.70
2018-11-11T09:44:44.039Z,9.50
2018-11-11T09:47:11.434Z,12.67
2018-11-11T09:49:38.832Z,13.40
2018-11-11T09:52:06.275Z,11.17
2018-11-11T09:54:33.702Z,14.33
2018-11-11T09:57:01.159Z,11.07
2018-11-11T09:59:28.661Z,11.00
2018-11-11T10:01:56.202Z,10.77
2018-11-11T10:04:29.179Z,12.00
2018-11-11T10:07:02.105Z,10.57
2018-11-11T10:09:35.213Z,11.23
2018-11-11T10:12:40.946Z,10.37
2018-11-11T10:15:14.067Z,10.60
2018-11-11T10:18:16.743Z,12.13
2018-11-11T10:20:56.099Z,10.17
2018-11-11T10:23:30.715Z,11.37
2018-11-11T10:26:13.654Z,10.10
2018-11-11T10:28:46.717Z,9.17
2018-11-11T10:31:35.993Z,10.33
2018-11-11T10:34:10.800Z,6.87
2018-11-11T10:36:41.960Z,6.93
2018-11-11T10:39:18.111Z,9.33
2018-11-11T10:41:49.908Z,6.80
2018-11-11T10:44:24.439Z,5.07
2018-11-11T10:46:54.793Z,5.37
2018-11-11T10:49:28.246Z,4.90
2018-11-11T10:51:55.735Z,5.20
2018-11-11T10:54:23.208Z,6.40
2018-11-11T10:56:50.575Z,3.77
2018-11-11T10:59:18.051Z,3.70
2018-11-11T11:01:50.987Z,5.67
2018-11-11T11:04:18.421Z,3.20
2018-11-11T11:06:51.462Z,3.10
2018-11-11T11:09:18.941Z,3.80
2018-11-11T11:11:46.352Z,3.77
2018-11-11T11:14:14.045Z,2.93
2018-11-11T11:16:41.605Z,4.40
2018-11-11T11:19:09.160Z,3.37
2018-11-11T11:21:36.563Z,4.37
2018-11-11T11:26:41.664Z,3.90
2018-11-11T11:29:09.113Z,2.97
2018-11-11T11:31:36.637Z,5.30
2018-11-11T11:34:04.016Z,3.97
2018-11-11T11:36:31.489Z,4.10
2018-11-11T11:38:58.927Z,3.87
2018-11-11T11:41:26.458Z,3.57
2018-11-11T11:43:53.920Z,5.00
2018-11-11T11:46:21.364Z,4.43
2018-11-11T11:48:48.806Z,3.67
2018-11-11T11:51:16.293Z,4.47
2018-11-11T11:53:43.754Z,2.80
2018-11-11T11:56:11.275Z,2.20
2018-11-11T11:58:38.720Z,2.27
2018-11-11T12:01:06.146Z,2.40
2018-11-11T12:03:33.563Z,2.70
2018-11-11T12:06:01.079Z,2.50
2018-11-11T12:08:28.612Z,2.57
2018-11-11T12:10:56.003Z,1.77
2018-11-11T12:13:23.488Z,3.03
2018-11-11T12:15:50.928Z,1.60
2018-11-11T12:18:19.095Z,1.30
2018-11-11T12:20:46.826Z,1.87
2018-11-11T12:23:15.203Z,1.63
2018-11-11T12:25:42.599Z,1.47
2018-11-11T12:28:10.550Z,1.43
2018-11-11T12:30:38.784Z,1.77
2018-11-11T12:33:06.748Z,1.33
2018-11-11T12:35:34.296Z,1.27
2018-11-11T12:38:02.059Z,1.57
2018-11-11T12:40:29.633Z,10.60
2018-11-11T12:42:57.761Z,8.30
2018-11-11T12:45:25.729Z,10.60
2018-11-11T12:47:53.552Z,9.50
2018-11-11T12:50:21.349Z,11.90
2018-11-11T12:52:48.738Z,11.23
2018-11-11T12:55:16.245Z,11.23
2018-11-11T12:57:44.174Z,11.33
2018-11-11T13:00:13.625Z,12.57
2018-11-11T13:02:41.325Z,11.83
2018-11-11T13:05:09.733Z,13.50
2018-11-11T13:07:37.170Z,15.37
2018-11-11T13:10:08.481Z,19.43
2018-11-11T13:12:36.330Z,17.13
2018-11-11T13:15:04.262Z,14.67
2018-11-11T13:17:32.061Z,13.33
2018-11-11T13:19:59.804Z,17.73
2018-11-11T13:22:27.798Z,18.63
2018-11-11T13:24:56.615Z,25.00
2018-11-11T13:27:24.044Z,19.97
2018-11-11T13:29:51.465Z,17.73
2018-11-11T13:32:18.921Z,16.27
2018-11-11T13:34:46.369Z,15.70
2018-11-11T13:37:13.849Z,19.27
2018-11-11T13:39:41.246Z,16.20
2018-11-11T13:42:08.736Z,15.50
2018-11-11T13:44:36.236Z,14.57
2018-11-11T13:47:04.123Z,14.07
2018-11-11T13:49:31.489Z,15.20
2018-11-11T13:51:58.999Z,13.87
2018-11-11T13:54:26.434Z,12.27
2018-11-11T13:56:54.830Z,12.80
2018-11-11T13:59:22.551Z,13.70
2018-11-11T14:01:50.250Z,12.47
2018-11-11T14:04:17.959Z,14.17
2018-11-11T14:06:46.210Z,10.70
2018-11-11T14:09:14.338Z,10.90
2018-11-11T14:11:41.949Z,11.03
2018-11-11T14:14:09.544Z,17.33
2018-11-11T14:16:37.385Z,12.57
2018-11-11T14:19:05.828Z,11.73
2018-11-11T14:21:33.385Z,12.67
2018-11-11T14:24:01.380Z,12.80
2018-11-11T14:26:29.183Z,9.47
2018-11-11T14:28:57.071Z,11.50
2018-11-11T14:31:24.846Z,13.07
2018-11-11T14:33:53.029Z,14.93
2018-11-11T14:36:20.545Z,18.10
2018-11-11T14:38:48.788Z,12.23
2018-11-11T14:41:16.807Z,13.53
2018-11-11T14:43:44.370Z,13.37
2018-11-11T14:46:12.319Z,14.33
2018-11-11T14:48:39.814Z,14.57
2018-11-11T14:51:07.260Z,21.93
2018-11-11T14:53:34.763Z,13.40
2018-11-11T14:56:02.459Z,13.80
2018-11-11T14:58:30.256Z,14.35
2018-11-11T15:00:57.629Z,13.17
2018-11-11T15:03:25.237Z,11.47
2018-11-11T15:05:53.170Z,12.77
2018-11-11T15:08:20.887Z,12.40
2018-11-11T15:10:48.521Z,10.50
2018-11-11T15:13:16.624Z,13.90
2018-11-11T15:15:44.559Z,14.23
2018-11-11T15:18:12.269Z,13.43
2018-11-11T15:20:39.938Z,9.67
2018-11-11T15:23:07.954Z,13.30
2018-11-11T15:25:35.401Z,10.83
2018-11-11T15:28:02.871Z,9.90
2018-11-11T15:30:31.747Z,11.50
2018-11-11T15:32:59.801Z,12.93
2018-11-11T15:35:27.277Z,9.93
2018-11-11T15:37:54.746Z,9.27
2018-11-11T15:40:26.395Z,9.23
2018-11-11T15:42:54.539Z,9.40
2018-11-11T15:45:23.268Z,11.37
2018-11-11T15:47:50.714Z,15.13
2018-11-11T15:50:21.035Z,12.43
2018-11-11T15:52:50.740Z,11.33
2018-11-11T15:55:19.100Z,11.43
2018-11-11T15:57:46.565Z,9.90
2018-11-11T16:00:16.867Z,17.10
2018-11-11T16:02:44.697Z,11.53
2018-11-11T16:05:12.713Z,11.53
2018-11-11T16:07:41.159Z,10.90
2018-11-11T16:10:10.697Z,10.37
2018-11-11T16:12:38.377Z,11.50
2018-11-11T16:15:08.958Z,12.13
2018-11-11T16:17:36.560Z,11.77
2018-11-11T16:20:05.807Z,15.03
2018-11-11T16:22:33.461Z,14.73
2018-11-11T16:25:00.944Z,15.47
2018-11-11T16:27:28.396Z,19.83
2018-11-11T16:29:55.848Z,15.57
2018-11-11T16:32:23.320Z,16.57
2018-11-11T16:34:50.700Z,16.67
2018-11-11T16:37:18.340Z,17.00
2018-11-11T16:39:46.158Z,15.23
2018-11-11T16:42:14.099Z,18.17
2018-11-11T16:44:41.795Z,18.27
2018-11-11T16:47:09.466Z,22.13
2018-11-11T16:49:37.166Z,22.00
2018-11-11T16:52:04.718Z,21.13
2018-11-11T16:54:32.386Z,27.50
2018-11-11T16:57:00.125Z,28.13
2018-11-11T16:59:27.572Z,41.83
2018-11-11T17:01:55.113Z,24.43
2018-11-11T17:04:22.804Z,29.87
2018-11-11T17:06:50.420Z,25.40
2018-11-11T17:09:18.331Z,26.90
2018-11-11T17:11:46.301Z,26.97
2018-11-11T17:14:13.994Z,19.93
2018-11-11T17:16:41.411Z,19.53
2018-11-11T17:19:08.876Z,18.87
2018-11-11T17:21:36.390Z,18.93
2018-11-11T17:24:04.001Z,20.00
2018-11-11T17:26:31.490Z,17.67
2018-11-11T17:28:59.166Z,19.10
2018-11-11T17:31:26.996Z,17.07
2018-11-11T17:33:54.990Z,16.33
2018-11-11T17:36:22.711Z,19.53
2018-11-11T17:38:50.484Z,18.47
2018-11-11T17:41:18.071Z,21.40
2018-11-11T17:43:45.666Z,17.20
2018-11-11T17:46:13.175Z,24.90
2018-11-11T17:48:40.682Z,22.13
2018-11-11T17:51:08.776Z,21.47
2018-11-11T17:53:36.716Z,40.73
2018-11-11T17:56:04.332Z,34.13
2018-11-11T17:58:31.774Z,23.40
2018-11-11T18:00:59.278Z,29.77
2018-11-11T18:03:27.180Z,34.80
2018-11-11T18:05:54.597Z,48.93
2018-11-11T18:08:22.057Z,57.93
2018-11-11T18:10:49.551Z,34.90
2018-11-11T18:13:17.787Z,20.43
2018-11-11T18:15:45.356Z,26.30
2018-11-11T18:18:12.782Z,33.63
2018-11-11T18:20:40.938Z,21.47
2018-11-11T18:23:08.783Z,22.27
2018-11-11T18:25:36.272Z,27.07
2018-11-11T18:28:03.854Z,43.60
2018-11-11T18:30:33.166Z,41.93
2018-11-11T18:33:00.615Z,35.83
2018-11-11T18:35:28.089Z,31.47
2018-11-11T18:37:56.523Z,32.83
2018-11-11T18:40:25.252Z,25.33
2018-11-11T18:42:52.717Z,21.80
2018-11-11T18:45:22.615Z,20.80
2018-11-11T18:47:51.097Z,25.27
2018-11-11T18:50:27.240Z,29.50
2018-11-11T18:52:54.725Z,28.17
2018-11-11T18:55:22.632Z,27.23
2018-11-11T18:57:50.144Z,23.70
2018-11-11T19:00:19.714Z,22.67
2018-11-11T19:02:48.251Z,24.97
2018-11-11T19:05:16.713Z,24.50
2018-11-11T19:07:44.417Z,29.73
2018-11-11T19:10:13.685Z,24.97
2018-11-11T19:12:42.127Z,22.23
2018-11-11T19:15:11.480Z,18.07
2018-11-11T19:17:39.688Z,20.17
2018-11-11T19:20:10.072Z,21.63
2018-11-11T19:22:38.162Z,18.67
2018-11-11T19:25:07.358Z,20.63
2018-11-11T19:27:35.672Z,25.53
2018-11-11T19:30:03.398Z,27.73
2018-11-11T19:32:30.882Z,24.67
2018-11-11T19:34:58.327Z,25.67
2018-11-11T19:37:25.808Z,26.33
2018-11-11T19:39:53.214Z,23.33
2018-11-11T19:42:20.718Z,21.90
2018-11-11T19:44:48.247Z,20.90
2018-11-11T19:47:16.391Z,20.93
2018-11-11T19:49:44.256Z,20.73
2018-11-11T19:52:12.044Z,20.57
2018-11-11T19:54:40.081Z,18.57
2018-11-11T19:57:07.897Z,17.87
2018-11-11T19:59:35.637Z,17.93
2018-11-11T20:02:05.000Z,22.37
2018-11-11T20:04:32.804Z,19.47
2018-11-11T20:07:00.854Z,23.93
2018-11-11T20:09:29.187Z,27.03
2018-11-11T20:11:57.552Z,21.90
2018-11-11T20:14:25.727Z,19.17
2018-11-11T20:16:53.190Z,18.23
2018-11-11T20:19:20.889Z,18.77
2018-11-11T20:21:48.417Z,16.60
2018-11-11T20:24:15.983Z,17.73
2018-11-11T20:26:43.406Z,15.07
2018-11-11T20:29:10.834Z,16.63
2018-11-11T20:31:38.398Z,18.67
2018-11-11T20:34:06.554Z,15.20
2018-11-11T20:36:34.177Z,14.77
2018-11-11T20:39:01.634Z,18.73
2018-11-11T20:41:29.083Z,17.33
2018-11-11T20:43:56.988Z,15.43
2018-11-11T20:46:25.050Z,16.43
2018-11-11T20:48:53.097Z,16.17
2018-11-11T20:51:20.808Z,17.57
2018-11-11T20:53:48.748Z,14.77
2018-11-11T20:56:16.526Z,15.17
2018-11-11T20:58:44.108Z,13.77
2018-11-11T21:01:11.580Z,13.23
2018-11-11T21:03:39.920Z,13.73
2018-11-11T21:06:07.404Z,17.47
2018-11-11T21:08:35.030Z,16.90
2018-11-11T21:11:02.749Z,15.73
2018-11-11T21:13:30.837Z,12.10
2018-11-11T21:15:58.811Z,13.30
2018-11-11T21:18:26.648Z,16.10
2018-11-11T21:20:54.086Z,15.87
2018-11-11T21:23:21.518Z,14.17
2018-11-11T21:25:49.303Z,13.93
2018-11-11T21:28:17.266Z,14.47
2018-11-11T21:30:45.059Z,12.07
2018-11-11T21:33:13.208Z,13.13
2018-11-11T21:35:40.890Z,13.50
2018-11-11T21:38:09.155Z,14.10
2018-11-11T21:40:36.602Z,13.00
2018-11-11T21:43:04.863Z,13.10
2018-11-11T21:45:32.481Z,14.30
2018-11-11T21:47:59.964Z,11.57
2018-11-11T21:50:27.929Z,12.83
2018-11-11T21:53:04.778Z,12.43
2018-11-11T21:55:32.273Z,13.77
2018-11-11T21:58:01.078Z,13.30
2018-11-11T22:00:28.521Z,12.23
2018-11-11T22:02:56.086Z,11.90
2018-11-11T22:05:24.242Z,14.70
2018-11-11T22:07:52.304Z,13.37
2018-11-11T22:10:20.147Z,12.90
2018-11-11T22:12:47.544Z,11.00
2018-11-11T22:15:15.124Z,11.00
2018-11-11T22:17:43.021Z,12.87
2018-11-11T22:20:11.106Z,10.97
2018-11-11T22:22:38.928Z,13.20
2018-11-11T22:25:07.047Z,19.33
2018-11-11T22:27:35.478Z,11.07
2018-11-11T22:30:03.012Z,11.47
2018-11-11T22:32:30.676Z,11.93
2018-11-11T22:34:58.438Z,11.97
2018-11-11T22:37:26.240Z,11.87
2018-11-11T22:39:54.033Z,16.07
2018-11-11T22:42:21.536Z,12.47
2018-11-11T22:44:49.153Z,12.10
2018-11-11T22:47:16.609Z,13.73
2018-11-11T22:49:44.659Z,18.00
2018-11-11T22:52:12.392Z,16.40
2018-11-11T22:54:39.843Z,13.33
2018-11-11T22:57:07.326Z,16.57
2018-11-11T22:59:34.749Z,15.40
2018-11-11T23:02:02.180Z,14.90
2018-11-11T23:04:29.592Z,14.87
2018-11-11T23:07:01.455Z,15.57
2018-11-11T23:09:29.043Z,36.50
2018-11-11T23:11:56.487Z,28.53
2018-11-11T23:14:23.879Z,30.17
2018-11-11T23:16:51.398Z,23.93
2018-11-11T23:19:18.828Z,23.50
2018-11-11T23:21:46.309Z,22.70
2018-11-11T23:24:13.690Z,22.87
2018-11-11T23:26:41.100Z,19.80
2018-11-11T23:29:08.484Z,18.63
2018-11-11T23:31:35.932Z,17.27
2018-11-11T23:34:03.337Z,21.57
2018-11-11T23:36:30.785Z,22.30
2018-11-11T23:38:58.193Z,18.17
2018-11-11T23:41:25.569Z,17.27
2018-11-11T23:43:52.988Z,18.63
2018-11-11T23:46:20.404Z,16.87
2018-11-11T23:48:47.839Z,15.40
2018-11-11T23:51:15.248Z,14.20
2018-11-11T23:53:42.689Z,12.97
2018-11-11T23:56:10.092Z,15.03
2018-11-11T23:58:37.510Z,13.03
